createdAt,value
2018-03-04T00:00:38.749Z,0
2018-03-04T00:01:41.156Z,0
2018-03-04T00:02:43.572Z,0
2018-03-04T00:03:46.284Z,0
2018-03-04T00:04:48.690Z,0
2018-03-04T00:05:51.110Z,0
2018-03-04T00:06:53.523Z,0
2018-03-04T00:07:55.942Z,0
2018-03-04T00:08:58.349Z,0
2018-03-04T00:10:00.755Z,0
2018-03-04T00:11:03.488Z,0
2018-03-04T00:12:06.184Z,0
2018-03-04T00:13:08.600Z,0
2018-03-04T00:14:11.012Z,0
2018-03-04T00:15:13.715Z,0
2018-03-04T00:16:16.121Z,0
2018-03-04T00:17:18.540Z,0
2018-03-04T00:18:20.943Z,0
2018-03-04T00:19:23.362Z,0
2018-03-04T00:20:25.766Z,0
2018-03-04T00:21:28.177Z,0
2018-03-04T00:22:30.604Z,0
2018-03-04T00:23:33.296Z,0
2018-03-04T00:24:35.711Z,0
2018-03-04T00:25:38.125Z,0
2018-03-04T00:26:40.536Z,0
2018-03-04T00:27:42.987Z,0
2018-03-04T00:28:45.665Z,0
2018-03-04T00:29:48.067Z,0
2018-03-04T00:30:50.478Z,0
2018-03-04T00:31:53.197Z,0
2018-03-04T00:32:55.892Z,0
2018-03-04T00:33:58.305Z,0
2018-03-04T00:35:00.728Z,0
2018-03-04T00:36:03.421Z,0
2018-03-04T00:37:05.834Z,0
2018-03-04T00:38:08.239Z,0
2018-03-04T00:39:10.654Z,0
2018-03-04T00:40:13.070Z,0
2018-03-04T00:41:15.477Z,0
2018-03-04T00:42:17.881Z,0
2018-03-04T00:43:20.580Z,0
2018-03-04T00:44:22.998Z,0
2018-03-04T00:45:25.411Z,0
2018-03-04T00:46:27.809Z,0
2018-03-04T00:47:30.220Z,0
2018-03-04T00:48:32.632Z,0
2018-03-04T00:49:35.052Z,0
2018-03-04T00:50:37.464Z,0
2018-03-04T00:51:39.878Z,0
2018-03-04T00:52:42.276Z,0
2018-03-04T00:53:44.985Z,0
2018-03-04T00:54:47.393Z,0
2018-03-04T00:55:49.802Z,0
2018-03-04T00:56:52.214Z,0
2018-03-04T00:57:54.618Z,0
2018-03-04T00:58:57.318Z,0
2018-03-04T00:59:59.742Z,0
2018-03-04T01:01:02.733Z,0
2018-03-04T01:02:05.445Z,0
2018-03-04T01:03:07.860Z,0
2018-03-04T01:04:10.267Z,0
2018-03-04T01:05:12.672Z,0
2018-03-04T01:06:15.088Z,0
2018-03-04T01:07:17.509Z,0
2018-03-04T01:08:19.905Z,0
2018-03-04T01:09:22.317Z,0
2018-03-04T01:10:24.736Z,0
2018-03-04T01:11:27.142Z,0
2018-03-04T01:12:29.562Z,0
2018-03-04T01:13:31.978Z,0
2018-03-04T01:14:34.389Z,0
2018-03-04T01:15:36.801Z,0
2018-03-04T01:16:39.211Z,0
2018-03-04T01:17:41.618Z,0
2018-03-04T01:18:44.038Z,0
2018-03-04T01:19:46.447Z,0
2018-03-04T01:20:49.144Z,0
2018-03-04T01:21:51.551Z,0
2018-03-04T01:22:53.962Z,0
2018-03-04T01:23:56.652Z,0
2018-03-04T01:24:59.379Z,0
2018-03-04T01:26:01.793Z,0
2018-03-04T01:27:04.196Z,0
2018-03-04T01:28:06.613Z,0
2018-03-04T01:29:09.320Z,0
2018-03-04T01:30:11.727Z,0
2018-03-04T01:31:14.440Z,0
2018-03-04T01:32:17.417Z,0
2018-03-04T01:33:19.825Z,0
2018-03-04T01:34:22.235Z,0
2018-03-04T01:35:24.653Z,0
2018-03-04T01:36:27.057Z,0
2018-03-04T01:37:29.756Z,0
2018-03-04T01:38:32.476Z,0
2018-03-04T01:39:34.903Z,0
2018-03-04T01:40:37.892Z,0
2018-03-04T01:41:40.619Z,0
2018-03-04T01:42:43.026Z,0
2018-03-04T01:43:45.446Z,0
2018-03-04T01:44:47.862Z,0
2018-03-04T01:45:50.254Z,0
2018-03-04T01:46:52.671Z,0
2018-03-04T01:47:55.080Z,0
2018-03-04T01:48:57.492Z,0
2018-03-04T01:49:59.911Z,0
2018-03-04T01:51:02.307Z,0
2018-03-04T01:52:05.000Z,0
2018-03-04T01:53:07.416Z,0
2018-03-04T01:54:09.824Z,0
2018-03-04T01:55:12.241Z,0
2018-03-04T01:56:14.937Z,0
2018-03-04T01:57:17.350Z,0
2018-03-04T01:58:19.774Z,0
2018-03-04T01:59:22.189Z,0
2018-03-04T02:00:24.595Z,0
2018-03-04T02:01:27.313Z,0
2018-03-04T02:02:29.716Z,0
2018-03-04T02:03:32.167Z,0
2018-03-04T02:04:34.698Z,0
2018-03-04T02:05:37.113Z,0
2018-03-04T02:06:39.521Z,0
2018-03-04T02:07:41.934Z,0
2018-03-04T02:08:44.333Z,0
2018-03-04T02:09:46.756Z,0
2018-03-04T02:10:49.153Z,0
2018-03-04T02:11:51.570Z,0
2018-03-04T02:12:53.974Z,0
2018-03-04T02:13:56.389Z,0
2018-03-04T02:14:58.794Z,0
2018-03-04T02:16:01.783Z,0
2018-03-04T02:17:04.183Z,0
2018-03-04T02:18:06.597Z,0
2018-03-04T02:19:09.008Z,0
2018-03-04T02:20:11.717Z,0
2018-03-04T02:21:14.430Z,0
2018-03-04T02:22:17.152Z,0
2018-03-04T02:23:19.550Z,0
2018-03-04T02:24:22.257Z,0
2018-03-04T02:25:24.654Z,0
2018-03-04T02:26:27.364Z,0
2018-03-04T02:27:29.788Z,0
2018-03-04T02:28:32.183Z,0
2018-03-04T02:29:34.589Z,0
2018-03-04T02:30:37.287Z,0
2018-03-04T02:31:39.692Z,0
2018-03-04T02:32:42.111Z,0
2018-03-04T02:33:45.093Z,0
2018-03-04T02:34:47.792Z,0
2018-03-04T02:35:50.212Z,0
2018-03-04T02:36:52.621Z,0
2018-03-04T02:37:55.036Z,0
2018-03-04T02:38:57.437Z,0
2018-03-04T02:40:00.139Z,0
2018-03-04T02:41:02.544Z,0
2018-03-04T02:42:04.972Z,0
2018-03-04T02:43:07.380Z,0
2018-03-04T02:44:09.787Z,0
2018-03-04T02:45:12.209Z,0
2018-03-04T02:46:14.901Z,0
2018-03-04T02:47:17.316Z,0
2018-03-04T02:48:20.010Z,0
2018-03-04T02:49:22.427Z,0
2018-03-04T02:50:25.120Z,0
2018-03-04T02:51:28.110Z,0
2018-03-04T02:52:30.814Z,0
2018-03-04T02:53:33.226Z,0
2018-03-04T02:54:35.924Z,0
2018-03-04T02:55:38.332Z,0
2018-03-04T02:56:40.750Z,0
2018-03-04T02:57:43.145Z,0
2018-03-04T02:58:45.865Z,0
2018-03-04T02:59:48.642Z,0
2018-03-04T03:00:51.648Z,0
2018-03-04T03:01:54.061Z,0
2018-03-04T03:02:56.757Z,0
2018-03-04T03:03:59.161Z,0
2018-03-04T03:05:01.653Z,0
2018-03-04T03:06:04.288Z,0
2018-03-04T03:07:06.715Z,0
2018-03-04T03:08:09.416Z,0
2018-03-04T03:09:12.096Z,0
2018-03-04T03:10:14.517Z,0
2018-03-04T03:11:16.930Z,0
2018-03-04T03:12:19.346Z,0
2018-03-04T03:13:22.035Z,0
2018-03-04T03:14:24.447Z,0
2018-03-04T03:15:27.144Z,0
2018-03-04T03:16:29.847Z,0
2018-03-04T03:17:32.536Z,0
2018-03-04T03:18:34.973Z,0
2018-03-04T03:19:37.373Z,0
2018-03-04T03:20:39.785Z,0
2018-03-04T03:21:42.210Z,0
2018-03-04T03:22:44.898Z,0
2018-03-04T03:23:47.302Z,0
2018-03-04T03:24:49.722Z,0
2018-03-04T03:25:52.122Z,0
2018-03-04T03:26:54.538Z,0
2018-03-04T03:27:56.944Z,0
2018-03-04T03:28:59.354Z,0
2018-03-04T03:30:01.773Z,0
2018-03-04T03:31:04.192Z,0
2018-03-04T03:32:06.597Z,0
2018-03-04T03:33:08.989Z,0
2018-03-04T03:34:11.399Z,0
2018-03-04T03:35:14.102Z,0
2018-03-04T03:36:16.514Z,0
2018-03-04T03:37:18.916Z,0
2018-03-04T03:38:21.318Z,0
2018-03-04T03:39:23.726Z,0
2018-03-04T03:40:26.459Z,0
2018-03-04T03:41:28.867Z,0
2018-03-04T03:42:31.565Z,0
2018-03-04T03:43:33.975Z,0
2018-03-04T03:44:36.696Z,0
2018-03-04T03:45:39.394Z,0
2018-03-04T03:46:41.816Z,0
2018-03-04T03:47:44.216Z,0
2018-03-04T03:48:46.622Z,0
2018-03-04T03:49:49.335Z,0
2018-03-04T03:50:52.034Z,0
2018-03-04T03:51:54.742Z,0
2018-03-04T03:52:57.443Z,0
2018-03-04T03:53:59.848Z,0
2018-03-04T03:55:02.268Z,0
2018-03-04T03:56:04.973Z,0
2018-03-04T03:57:07.365Z,0
2018-03-04T03:58:10.092Z,0
2018-03-04T03:59:12.504Z,0
2018-03-04T04:00:14.909Z,0
2018-03-04T04:01:17.330Z,0
2018-03-04T04:02:19.741Z,0
2018-03-04T04:03:22.440Z,0
2018-03-04T04:04:24.845Z,0
2018-03-04T04:05:27.837Z,0
2018-03-04T04:06:30.569Z,0
2018-03-04T04:07:32.974Z,0
2018-03-04T04:08:35.392Z,0
2018-03-04T04:09:37.795Z,0
2018-03-04T04:10:40.201Z,0
2018-03-04T04:11:42.615Z,0
2018-03-04T04:12:45.025Z,0
2018-03-04T04:13:47.423Z,0
2018-03-04T04:14:49.839Z,0
2018-03-04T04:15:52.239Z,0
2018-03-04T04:16:54.645Z,0
2018-03-04T04:17:57.054Z,0
2018-03-04T04:18:59.461Z,0
2018-03-04T04:20:02.179Z,0
2018-03-04T04:21:04.890Z,0
2018-03-04T04:22:07.582Z,0
2018-03-04T04:23:09.990Z,0
2018-03-04T04:24:12.402Z,0
2018-03-04T04:25:14.812Z,0
2018-03-04T04:26:17.223Z,0
2018-03-04T04:27:19.638Z,0
2018-03-04T04:28:22.319Z,0
2018-03-04T04:29:24.730Z,0
2018-03-04T04:30:27.142Z,0
2018-03-04T04:31:29.550Z,0
2018-03-04T04:32:32.256Z,0
2018-03-04T04:33:34.663Z,0
2018-03-04T04:34:37.378Z,0
2018-03-04T04:35:39.788Z,0
2018-03-04T04:36:42.202Z,0
2018-03-04T04:37:44.599Z,0
2018-03-04T04:38:47.015Z,0
2018-03-04T04:39:49.414Z,0
2018-03-04T04:40:51.826Z,0
2018-03-04T04:41:54.529Z,0
2018-03-04T04:42:57.221Z,0
2018-03-04T04:43:59.632Z,0
2018-03-04T04:45:02.054Z,0
2018-03-04T04:46:04.454Z,0
2018-03-04T04:47:06.873Z,0
2018-03-04T04:48:09.276Z,0
2018-03-04T04:49:11.690Z,0
2018-03-04T04:50:14.093Z,0
2018-03-04T04:51:16.502Z,0
2018-03-04T04:52:18.909Z,0
2018-03-04T04:53:21.318Z,0
2018-03-04T04:54:23.721Z,0
2018-03-04T04:55:26.132Z,0
2018-03-04T04:56:28.542Z,0
2018-03-04T04:57:30.958Z,0
2018-03-04T04:58:33.361Z,0
2018-03-04T04:59:35.774Z,0
2018-03-04T05:00:38.179Z,0
2018-03-04T05:01:40.887Z,0
2018-03-04T05:02:43.288Z,0
2018-03-04T05:03:46.020Z,0
2018-03-04T05:04:48.707Z,0
2018-03-04T05:05:51.404Z,0
2018-03-04T05:06:53.821Z,0
2018-03-04T05:07:56.517Z,0
2018-03-04T05:08:58.931Z,0
2018-03-04T05:10:01.637Z,0
2018-03-04T05:11:04.037Z,0
2018-03-04T05:12:06.447Z,0
2018-03-04T05:13:08.872Z,0
2018-03-04T05:14:11.274Z,0
2018-03-04T05:15:13.976Z,0
2018-03-04T05:16:16.391Z,0
2018-03-04T05:17:18.798Z,0
2018-03-04T05:18:21.208Z,0
2018-03-04T05:19:23.615Z,0
2018-03-04T05:20:26.016Z,4
2018-03-04T05:21:28.429Z,0
2018-03-04T05:22:31.130Z,0
2018-03-04T05:23:33.538Z,4
2018-03-04T05:24:35.941Z,4
2018-03-04T05:25:38.348Z,4
2018-03-04T05:26:40.761Z,4
2018-03-04T05:27:43.178Z,4
2018-03-04T05:28:45.591Z,4
2018-03-04T05:29:48.269Z,4
2018-03-04T05:30:50.690Z,8
2018-03-04T05:31:53.094Z,12
2018-03-04T05:32:55.504Z,12
2018-03-04T05:33:57.915Z,12
2018-03-04T05:35:00.337Z,16
2018-03-04T05:36:03.035Z,16
2018-03-04T05:37:05.440Z,20
2018-03-04T05:38:07.856Z,24
2018-03-04T05:39:10.263Z,32
2018-03-04T05:40:12.965Z,36
2018-03-04T05:41:15.669Z,40
2018-03-04T05:42:18.068Z,48
2018-03-04T05:43:20.479Z,52
2018-03-04T05:44:22.883Z,60
2018-03-04T05:45:25.291Z,68
2018-03-04T05:46:27.715Z,80
2018-03-04T05:47:30.122Z,88
2018-03-04T05:48:33.090Z,100
2018-03-04T05:49:35.505Z,116
2018-03-04T05:50:37.913Z,132
2018-03-04T05:51:40.325Z,144
2018-03-04T05:52:43.029Z,164
2018-03-04T05:53:45.426Z,184
2018-03-04T05:54:47.826Z,200
2018-03-04T05:55:50.549Z,216
2018-03-04T05:56:52.955Z,236
2018-03-04T05:57:55.367Z,256
2018-03-04T05:58:57.771Z,280
2018-03-04T06:00:00.190Z,308
2018-03-04T06:01:02.872Z,328
2018-03-04T06:02:05.283Z,356
2018-03-04T06:03:07.696Z,384
2018-03-04T06:04:10.107Z,416
2018-03-04T06:05:12.802Z,452
2018-03-04T06:06:15.498Z,492
2018-03-04T06:07:17.913Z,548
2018-03-04T06:08:20.334Z,604
2018-03-04T06:09:23.328Z,656
2018-03-04T06:10:25.729Z,696
2018-03-04T06:11:28.142Z,740
2018-03-04T06:12:30.545Z,788
2018-03-04T06:13:32.956Z,848
2018-03-04T06:14:35.361Z,928
2018-03-04T06:15:37.765Z,1012
2018-03-04T06:16:40.180Z,1100
2018-03-04T06:17:43.166Z,1200
2018-03-04T06:18:45.572Z,1288
2018-03-04T06:19:48.284Z,1392
2018-03-04T06:20:50.687Z,1508
2018-03-04T06:21:53.104Z,1636
2018-03-04T06:22:55.519Z,1792
2018-03-04T06:23:57.920Z,1932
2018-03-04T06:25:00.339Z,2000
2018-03-04T06:26:02.741Z,2040
2018-03-04T06:27:05.161Z,2108
2018-03-04T06:28:07.862Z,2220
2018-03-04T06:29:10.259Z,2348
2018-03-04T06:30:12.680Z,2476
2018-03-04T06:31:15.363Z,2668
2018-03-04T06:32:18.082Z,2912
2018-03-04T06:33:20.498Z,3140
2018-03-04T06:34:22.897Z,3292
2018-03-04T06:35:25.306Z,3372
2018-03-04T06:36:27.722Z,3460
2018-03-04T06:37:30.701Z,3540
2018-03-04T06:38:33.104Z,3644
2018-03-04T06:39:35.522Z,3744
2018-03-04T06:40:37.922Z,3876
2018-03-04T06:41:40.344Z,4008
2018-03-04T06:42:42.758Z,4140
2018-03-04T06:43:45.151Z,4092
2018-03-04T06:44:47.854Z,3996
2018-03-04T06:45:50.566Z,3856
2018-03-04T06:46:52.977Z,3692
2018-03-04T06:47:55.389Z,3628
2018-03-04T06:48:57.830Z,3684
2018-03-04T06:50:00.565Z,3652
2018-03-04T06:51:02.933Z,3552
2018-03-04T06:52:05.345Z,3336
2018-03-04T06:53:07.755Z,3220
2018-03-04T06:54:10.172Z,3088
2018-03-04T06:55:12.571Z,2984
2018-03-04T06:56:14.986Z,2864
2018-03-04T06:57:17.397Z,2884
2018-03-04T06:58:20.859Z,2852
2018-03-04T06:59:23.487Z,2900
2018-03-04T07:00:26.068Z,2964
2018-03-04T07:01:29.146Z,3064
2018-03-04T07:02:32.170Z,3192
2018-03-04T07:03:36.141Z,3340
2018-03-04T07:04:38.560Z,3488
2018-03-04T07:05:40.966Z,3612
2018-03-04T07:06:43.674Z,3716
2018-03-04T07:07:46.355Z,3868
2018-03-04T07:08:48.774Z,4020
2018-03-04T07:09:51.186Z,4140
2018-03-04T07:10:53.594Z,4288
2018-03-04T07:11:56.310Z,4580
2018-03-04T07:12:58.724Z,4940
2018-03-04T07:14:01.148Z,5408
2018-03-04T07:15:03.861Z,6016
2018-03-04T07:16:06.848Z,6788
2018-03-04T07:17:09.252Z,7540
2018-03-04T07:18:11.653Z,8316
2018-03-04T07:19:14.080Z,8896
2018-03-04T07:20:16.485Z,9140
2018-03-04T07:21:19.490Z,9384
2018-03-04T07:22:21.892Z,9532
2018-03-04T07:23:24.591Z,9400
2018-03-04T07:24:26.995Z,8828
2018-03-04T07:25:29.715Z,8012
2018-03-04T07:26:32.116Z,7804
2018-03-04T07:27:34.522Z,7508
2018-03-04T07:28:36.947Z,7268
2018-03-04T07:29:39.365Z,7440
2018-03-04T07:30:41.764Z,7760
2018-03-04T07:31:44.188Z,7880
2018-03-04T07:32:46.594Z,7612
2018-03-04T07:33:49.009Z,6868
2018-03-04T07:34:51.710Z,6384
2018-03-04T07:35:54.118Z,6168
2018-03-04T07:36:57.124Z,6080
2018-03-04T07:37:59.532Z,6168
2018-03-04T07:39:01.944Z,6360
2018-03-04T07:40:04.361Z,6480
2018-03-04T07:41:06.777Z,7312
2018-03-04T07:42:09.480Z,8084
2018-03-04T07:43:11.894Z,8604
2018-03-04T07:44:14.318Z,8340
2018-03-04T07:45:17.011Z,7704
2018-03-04T07:46:19.768Z,7952
2018-03-04T07:47:22.149Z,8072
2018-03-04T07:48:24.569Z,8068
2018-03-04T07:49:26.978Z,7992
2018-03-04T07:50:29.403Z,8116
2018-03-04T07:51:31.802Z,8600
2018-03-04T07:52:34.257Z,8920
2018-03-04T07:53:36.639Z,8936
2018-03-04T07:54:39.051Z,9076
2018-03-04T07:55:41.467Z,8860
2018-03-04T07:56:43.885Z,8752
2018-03-04T07:57:46.294Z,7976
2018-03-04T07:58:48.707Z,6552
2018-03-04T07:59:51.156Z,6032
2018-03-04T08:00:53.565Z,6008
2018-03-04T08:01:55.984Z,6392
2018-03-04T08:02:58.400Z,6784
2018-03-04T08:04:00.809Z,7316
2018-03-04T08:05:03.216Z,8156
2018-03-04T08:06:05.642Z,9212
2018-03-04T08:07:08.038Z,9872
2018-03-04T08:08:10.457Z,10156
2018-03-04T08:09:12.871Z,10580
2018-03-04T08:10:15.583Z,11492
2018-03-04T08:11:18.001Z,12200
2018-03-04T08:12:20.407Z,11984
2018-03-04T08:13:22.825Z,11300
2018-03-04T08:14:25.240Z,10352
2018-03-04T08:15:27.953Z,9708
2018-03-04T08:16:30.351Z,10100
2018-03-04T08:17:32.759Z,10992
2018-03-04T08:18:35.180Z,12056
2018-03-04T08:19:37.590Z,12676
2018-03-04T08:20:40.003Z,12524
2018-03-04T08:21:42.407Z,12004
2018-03-04T08:22:44.824Z,11552
2018-03-04T08:23:47.282Z,11236
2018-03-04T08:24:49.658Z,11628
2018-03-04T08:25:52.064Z,12232
2018-03-04T08:26:54.471Z,12372
2018-03-04T08:27:56.888Z,11996
2018-03-04T08:28:59.295Z,12032
2018-03-04T08:30:01.997Z,11916
2018-03-04T08:31:04.410Z,11680
2018-03-04T08:32:06.819Z,11652
2018-03-04T08:33:09.233Z,11836
2018-03-04T08:34:11.642Z,12076
2018-03-04T08:35:14.078Z,12084
2018-03-04T08:36:16.489Z,11904
2018-03-04T08:37:18.897Z,11636
2018-03-04T08:38:21.310Z,11444
2018-03-04T08:39:23.718Z,11652
2018-03-04T08:40:26.421Z,11612
2018-03-04T08:41:29.126Z,11324
2018-03-04T08:42:31.521Z,11188
2018-03-04T08:43:33.928Z,11292
2018-03-04T08:44:36.344Z,11188
2018-03-04T08:45:38.758Z,10812
2018-03-04T08:46:41.164Z,10704
2018-03-04T08:47:43.575Z,10316
2018-03-04T08:48:45.983Z,9500
2018-03-04T08:49:48.401Z,9180
2018-03-04T08:50:50.816Z,8844
2018-03-04T08:51:53.227Z,9080
2018-03-04T08:52:55.926Z,9588
2018-03-04T08:53:58.335Z,10172
2018-03-04T08:55:00.755Z,10956
2018-03-04T08:56:03.173Z,12608
2018-03-04T08:57:05.580Z,14512
2018-03-04T08:58:07.993Z,14884
2018-03-04T08:59:10.412Z,14504
2018-03-04T09:00:12.823Z,13832
2018-03-04T09:01:15.235Z,13464
2018-03-04T09:02:17.677Z,13500
2018-03-04T09:03:20.359Z,13608
2018-03-04T09:04:23.064Z,13708
2018-03-04T09:05:25.787Z,13460
2018-03-04T09:06:28.470Z,13468
2018-03-04T09:07:30.885Z,14060
2018-03-04T09:08:33.304Z,14484
2018-03-04T09:09:35.759Z,13904
2018-03-04T09:10:38.134Z,13352
2018-03-04T09:11:40.538Z,13720
2018-03-04T09:12:42.940Z,14540
2018-03-04T09:13:45.369Z,15844
2018-03-04T09:14:47.847Z,17408
2018-03-04T09:15:50.191Z,18368
2018-03-04T09:16:52.611Z,22240
2018-03-04T09:17:55.012Z,25856
2018-03-04T09:18:57.715Z,23488
2018-03-04T09:20:00.132Z,26016
2018-03-04T09:21:02.826Z,28992
2018-03-04T09:22:05.240Z,28896
2018-03-04T09:23:07.666Z,27520
2018-03-04T09:24:10.071Z,28512
2018-03-04T09:25:12.491Z,42592
2018-03-04T09:26:14.905Z,63968
2018-03-04T09:27:17.323Z,41184
2018-03-04T09:28:19.728Z,48672
2018-03-04T09:29:22.153Z,36128
2018-03-04T09:30:24.576Z,32192
2018-03-04T09:31:26.989Z,30208
2018-03-04T09:32:29.715Z,28896
2018-03-04T09:33:32.167Z,29024
2018-03-04T09:34:34.552Z,31328
2018-03-04T09:35:36.961Z,41600
2018-03-04T09:36:39.381Z,61056
2018-03-04T09:37:41.786Z,67072
2018-03-04T09:38:44.197Z,72608
2018-03-04T09:39:46.632Z,75328
2018-03-04T09:40:49.049Z,73984
2018-03-04T09:41:51.462Z,76928
2018-03-04T09:42:53.885Z,72800
2018-03-04T09:43:56.298Z,75072
2018-03-04T09:44:58.727Z,59904
2018-03-04T09:46:01.148Z,74176
2018-03-04T09:47:03.555Z,74208
2018-03-04T09:48:05.979Z,72672
2018-03-04T09:49:08.397Z,76096
2018-03-04T09:50:10.813Z,69632
2018-03-04T09:51:13.245Z,71584
2018-03-04T09:52:15.658Z,69184
2018-03-04T09:53:18.071Z,68992
2018-03-04T09:54:20.792Z,59680
2018-03-04T09:55:23.213Z,54304
2018-03-04T09:56:25.625Z,51712
2018-03-04T09:57:28.044Z,57216
2018-03-04T09:58:30.474Z,59232
2018-03-04T09:59:32.897Z,58784
2018-03-04T10:00:35.321Z,60736
2018-03-04T10:01:38.042Z,63648
2018-03-04T10:02:40.465Z,64096
2018-03-04T10:03:43.171Z,66784
2018-03-04T10:04:45.609Z,68608
2018-03-04T10:05:48.016Z,64832
2018-03-04T10:06:50.452Z,68512
2018-03-04T10:07:53.154Z,71488
2018-03-04T10:08:55.572Z,74016
2018-03-04T10:09:57.994Z,73568
2018-03-04T10:11:00.420Z,71808
2018-03-04T10:12:02.831Z,67968
2018-03-04T10:13:05.253Z,67392
2018-03-04T10:14:07.982Z,64192
2018-03-04T10:15:10.411Z,63200
2018-03-04T10:16:12.834Z,64320
2018-03-04T10:17:15.262Z,62336
2018-03-04T10:18:17.674Z,64352
2018-03-04T10:19:20.108Z,66080
2018-03-04T10:20:22.567Z,65632
2018-03-04T10:21:24.962Z,65024
2018-03-04T10:22:27.381Z,62848
2018-03-04T10:23:29.805Z,59552
2018-03-04T10:24:32.225Z,59584
2018-03-04T10:25:34.662Z,61280
2018-03-04T10:26:37.086Z,61088
2018-03-04T10:27:39.519Z,60448
2018-03-04T10:28:41.950Z,59712
2018-03-04T10:29:44.356Z,60608
2018-03-04T10:30:46.778Z,62624
2018-03-04T10:31:49.499Z,65824
2018-03-04T10:32:51.919Z,66112
2018-03-04T10:33:54.343Z,65888
2018-03-04T10:34:56.766Z,70016
2018-03-04T10:35:59.479Z,76736
2018-03-04T10:37:01.914Z,77504
2018-03-04T10:38:04.344Z,73472
2018-03-04T10:39:06.765Z,77280
2018-03-04T10:40:09.193Z,82432
2018-03-04T10:41:11.634Z,78336
2018-03-04T10:42:14.064Z,81248
2018-03-04T10:43:16.778Z,86080
2018-03-04T10:44:19.192Z,87712
2018-03-04T10:45:21.628Z,87136
2018-03-04T10:46:24.060Z,81728
2018-03-04T10:47:26.487Z,82240
2018-03-04T10:48:28.911Z,86848
2018-03-04T10:49:31.335Z,86112
2018-03-04T10:50:33.755Z,81216
2018-03-04T10:51:36.192Z,77344
2018-03-04T10:52:38.622Z,77600
2018-03-04T10:53:41.337Z,81248
2018-03-04T10:54:43.769Z,80320
2018-03-04T10:55:46.200Z,77248
2018-03-04T10:56:48.629Z,76896
2018-03-04T10:57:51.347Z,73632
2018-03-04T10:58:53.776Z,71456
2018-03-04T10:59:56.202Z,75296
2018-03-04T11:00:58.624Z,79232
2018-03-04T11:02:01.048Z,83392
2018-03-04T11:03:03.493Z,82016
2018-03-04T11:04:05.914Z,82432
2018-03-04T11:05:08.349Z,84768
2018-03-04T11:06:11.067Z,87488
2018-03-04T11:07:13.777Z,86688
2018-03-04T11:08:16.779Z,88544
2018-03-04T11:09:19.207Z,94176
2018-03-04T11:10:21.621Z,86816
2018-03-04T11:11:24.061Z,86016
2018-03-04T11:12:26.489Z,87904
2018-03-04T11:13:28.918Z,87744
2018-03-04T11:14:31.639Z,87264
2018-03-04T11:15:34.061Z,86720
2018-03-04T11:16:36.779Z,88736
2018-03-04T11:17:39.216Z,88096
2018-03-04T11:18:41.631Z,90496
2018-03-04T11:19:44.067Z,86944
2018-03-04T11:20:46.492Z,86016
2018-03-04T11:21:48.926Z,88160
2018-03-04T11:22:51.363Z,91616
2018-03-04T11:23:54.072Z,92192
2018-03-04T11:24:56.775Z,82048
2018-03-04T11:25:59.493Z,78496
2018-03-04T11:27:01.925Z,79872
2018-03-04T11:28:05.236Z,88256
2018-03-04T11:29:07.659Z,89888
2018-03-04T11:30:10.084Z,89760
2018-03-04T11:31:12.797Z,88320
2018-03-04T11:32:15.224Z,77696
2018-03-04T11:33:17.654Z,85248
2018-03-04T11:34:20.088Z,85056
2018-03-04T11:35:22.522Z,85568
2018-03-04T11:36:24.950Z,90624
2018-03-04T11:37:27.384Z,85216
2018-03-04T11:38:29.802Z,76192
2018-03-04T11:39:32.842Z,79456
2018-03-04T11:40:35.261Z,79264
2018-03-04T11:41:37.700Z,78144
2018-03-04T11:42:40.398Z,75808
2018-03-04T11:43:42.833Z,76000
2018-03-04T11:44:45.259Z,78880
2018-03-04T11:45:47.687Z,80160
2018-03-04T11:46:50.117Z,82560
2018-03-04T11:47:52.537Z,82112
2018-03-04T11:48:54.967Z,82848
2018-03-04T11:49:57.402Z,79904
2018-03-04T11:50:59.837Z,78176
2018-03-04T11:52:02.274Z,74048
2018-03-04T11:53:04.691Z,72832
2018-03-04T11:54:07.126Z,73600
2018-03-04T11:55:09.551Z,69664
2018-03-04T11:56:11.985Z,69120
2018-03-04T11:57:14.414Z,68416
2018-03-04T11:58:16.843Z,67904
2018-03-04T11:59:19.565Z,66176
2018-03-04T12:00:21.981Z,62464
2018-03-04T12:01:24.403Z,62848
2018-03-04T12:02:26.846Z,65504
2018-03-04T12:03:29.267Z,68608
2018-03-04T12:04:31.698Z,70560
2018-03-04T12:05:34.119Z,74304
2018-03-04T12:06:36.549Z,71552
2018-03-04T12:07:38.981Z,70496
2018-03-04T12:08:41.411Z,72736
2018-03-04T12:09:43.840Z,72480
2018-03-04T12:10:46.262Z,68768
2018-03-04T12:11:48.695Z,52448
2018-03-04T12:12:51.131Z,72256
2018-03-04T12:13:53.569Z,71840
2018-03-04T12:14:56.277Z,44288
2018-03-04T12:15:58.706Z,73120
2018-03-04T12:17:01.144Z,73248
2018-03-04T12:18:04.274Z,69600
2018-03-04T12:19:07.574Z,68608
2018-03-04T12:20:11.139Z,63200
2018-03-04T12:21:14.803Z,66752
2018-03-04T12:22:18.513Z,67872
2018-03-04T12:23:21.235Z,69824
2018-03-04T12:24:23.650Z,51712
2018-03-04T12:25:26.412Z,36032
2018-03-04T12:26:29.153Z,33184
2018-03-04T12:27:31.879Z,40960
2018-03-04T12:28:34.313Z,63648
2018-03-04T12:29:36.752Z,42208
2018-03-04T12:30:39.187Z,64064
2018-03-04T12:31:41.626Z,55584
2018-03-04T12:32:44.045Z,49568
2018-03-04T12:33:47.152Z,35424
2018-03-04T12:34:52.342Z,34176
2018-03-04T12:35:55.275Z,39584
2018-03-04T12:36:58.782Z,64960
2018-03-04T12:38:03.156Z,74624
2018-03-04T12:39:06.317Z,76512
2018-03-04T12:40:09.180Z,77888
2018-03-04T12:41:15.364Z,73024
2018-03-04T12:42:19.049Z,67680
2018-03-04T12:43:21.659Z,66144
2018-03-04T12:44:24.562Z,68192
2018-03-04T12:45:26.991Z,66400
2018-03-04T12:46:29.429Z,66656
2018-03-04T12:47:31.903Z,69600
2018-03-04T12:48:34.293Z,69472
2018-03-04T12:49:37.032Z,73728
2018-03-04T12:50:39.739Z,78976
2018-03-04T12:51:42.172Z,76032
2018-03-04T12:52:44.905Z,75840
2018-03-04T12:53:47.334Z,72544
2018-03-04T12:54:49.759Z,72320
2018-03-04T12:55:52.195Z,71712
2018-03-04T12:56:54.630Z,66784
2018-03-04T12:57:57.049Z,62944
2018-03-04T12:58:59.484Z,58144
2018-03-04T13:00:01.918Z,59232
2018-03-04T13:01:04.630Z,62720
2018-03-04T13:02:07.352Z,66336
2018-03-04T13:03:09.784Z,70528
2018-03-04T13:04:12.210Z,69888
2018-03-04T13:05:14.650Z,63520
2018-03-04T13:06:17.081Z,58016
2018-03-04T13:07:19.510Z,62912
2018-03-04T13:08:21.935Z,63936
2018-03-04T13:09:24.366Z,64032
2018-03-04T13:10:27.077Z,65440
2018-03-04T13:11:29.507Z,65152
2018-03-04T13:12:31.936Z,56480
2018-03-04T13:13:34.361Z,57760
2018-03-04T13:14:36.792Z,55392
2018-03-04T13:15:39.253Z,61600
2018-03-04T13:16:41.646Z,57408
2018-03-04T13:17:44.081Z,55552
2018-03-04T13:18:46.506Z,66080
2018-03-04T13:19:48.934Z,66240
2018-03-04T13:20:51.654Z,59936
2018-03-04T13:21:54.081Z,54688
2018-03-04T13:22:56.823Z,57280
2018-03-04T13:23:59.260Z,48096
2018-03-04T13:25:01.698Z,58144
2018-03-04T13:26:04.136Z,67264
2018-03-04T13:27:06.568Z,55744
2018-03-04T13:28:09.006Z,52352
2018-03-04T13:29:11.433Z,57248
2018-03-04T13:30:13.862Z,38912
2018-03-04T13:31:16.881Z,45216
2018-03-04T13:32:19.581Z,48480
2018-03-04T13:33:22.019Z,48224
2018-03-04T13:34:24.495Z,55808
2018-03-04T13:35:26.886Z,38848
2018-03-04T13:36:29.622Z,62240
2018-03-04T13:37:32.369Z,57728
2018-03-04T13:38:34.787Z,47488
2018-03-04T13:39:37.232Z,44128
2018-03-04T13:40:39.985Z,40992
2018-03-04T13:41:42.378Z,39712
2018-03-04T13:42:44.816Z,53600
2018-03-04T13:43:47.536Z,36832
2018-03-04T13:44:49.968Z,42208
2018-03-04T13:45:52.396Z,41056
2018-03-04T13:46:54.826Z,37024
2018-03-04T13:47:57.261Z,44320
2018-03-04T13:48:59.688Z,36032
2018-03-04T13:50:02.409Z,46592
2018-03-04T13:51:04.832Z,36640
2018-03-04T13:52:07.282Z,32896
2018-03-04T13:53:09.705Z,34784
2018-03-04T13:54:12.137Z,38208
2018-03-04T13:55:14.573Z,30624
2018-03-04T13:56:17.010Z,30144
2018-03-04T13:57:19.434Z,28960
2018-03-04T13:58:21.863Z,28096
2018-03-04T13:59:24.297Z,39680
2018-03-04T14:00:27.017Z,41472
2018-03-04T14:01:29.440Z,38368
2018-03-04T14:02:31.876Z,38304
2018-03-04T14:03:34.296Z,38144
2018-03-04T14:04:36.742Z,35488
2018-03-04T14:05:39.166Z,35584
2018-03-04T14:06:41.612Z,48448
2018-03-04T14:07:44.112Z,35584
2018-03-04T14:08:46.498Z,32608
2018-03-04T14:09:48.950Z,27392
2018-03-04T14:10:51.380Z,39680
2018-03-04T14:11:54.119Z,23136
2018-03-04T14:12:56.559Z,33728
2018-03-04T14:13:59.000Z,40896
2018-03-04T14:15:01.451Z,44128